Time;durP1;ratioP1;P1;durP2;ratioP2;P2;SDS_P1;SDS_P2;PMS_P1;PMS_P2;Temp;Humidity;BMP_temperature;BMP_pressure;BME280_temperature;BME280_humidity;BME280_pressure;Samples;Min_cycle;Max_cycle;Signal;HPM_P1;HPM_P2
2023/08/05 00:01:58;;;;;;;2.63;0.70;;;17.50;90.40;;;;;;4857009;29;20099;-81
2023/08/05 00:04:25;;;;;;;1.45;0.60;;;17.50;90.50;;;;;;4847681;29;20055;-80
2023/08/05 00:06:52;;;;;;;1.50;0.70;;;17.50;90.50;;;;;;4880263;29;20100;-81
2023/08/05 00:09:22;;;;;;;3.35;0.70;;;17.40;90.60;;;;;;4875555;29;20119;-81
2023/08/05 00:11:50;;;;;;;2.15;0.70;;;17.40;90.60;;;;;;4864387;29;20979;-81
2023/08/05 00:14:17;;;;;;;1.92;0.60;;;17.40;90.70;;;;;;4879814;29;20049;-81
2023/08/05 00:16:44;;;;;;;2.20;0.75;;;17.40;90.70;;;;;;4844961;29;20450;-81
2023/08/05 00:19:11;;;;;;;1.92;0.77;;;17.40;91.00;;;;;;4848828;29;20052;-81
2023/08/05 00:21:38;;;;;;;1.42;0.70;;;17.40;90.80;;;;;;4863175;29;20036;-81
2023/08/05 00:24:05;;;;;;;1.40;0.50;;;17.40;90.80;;;;;;4859493;29;20076;-80
2023/08/05 00:26:32;;;;;;;1.67;0.65;;;17.30;90.70;;;;;;4875019;29;20045;-81
2023/08/05 00:28:59;;;;;;;1.85;0.80;;;17.30;90.70;;;;;;4848681;29;20128;-81
2023/08/05 00:31:27;;;;;;;1.52;0.50;;;17.30;90.80;;;;;;4823283;29;20444;-81
2023/08/05 00:33:54;;;;;;;2.38;0.52;;;17.30;90.80;;;;;;4856489;29;20408;-81
2023/08/05 00:36:21;;;;;;;2.42;0.60;;;17.30;90.90;;;;;;4859927;29;20056;-80
2023/08/05 00:38:48;;;;;;;1.80;0.73;;;17.30;90.90;;;;;;4857519;29;20049;-80
2023/08/05 00:41:15;;;;;;;2.83;0.60;;;17.30;90.90;;;;;;4861049;29;20048;-81
2023/08/05 00:43:42;;;;;;;1.63;0.60;;;17.30;91.00;;;;;;4849095;29;20041;-80
2023/08/05 00:46:10;;;;;;;2.30;0.50;;;17.30;91.00;;;;;;4861940;29;20043;-81
2023/08/05 00:48:37;;;;;;;1.13;0.47;;;17.30;91.00;;;;;;4851603;29;20053;-80
2023/08/05 00:51:06;;;;;;;1.75;0.60;;;17.30;91.00;;;;;;4874722;29;20052;-81
2023/08/05 00:53:35;;;;;;;1.42;0.80;;;17.30;91.00;;;;;;4875505;29;20060;-81
2023/08/05 00:56:03;;;;;;;1.50;0.60;;;17.30;90.90;;;;;;4874887;29;20125;-81
2023/08/05 00:58:32;;;;;;;1.48;0.80;;;17.30;90.90;;;;;;4842141;29;20470;-81
2023/08/05 01:00:59;;;;;;;1.52;0.70;;;17.30;90.90;;;;;;4852987;29;20048;-81
2023/08/05 01:03:26;;;;;;;1.88;0.60;;;17.30;90.90;;;;;;4869460;29;20462;-81
2023/08/05 01:05:54;;;;;;;1.10;0.60;;;17.30;91.00;;;;;;4843696;29;20068;-81
2023/08/05 01:08:22;;;;;;;3.08;0.90;;;17.30;91.00;;;;;;4858510;29;20045;-81
2023/08/05 01:10:50;;;;;;;1.40;0.60;;;17.30;91.00;;;;;;4846602;29;20049;-81
2023/08/05 01:13:17;;;;;;;1.25;0.60;;;17.30;91.00;;;;;;4879949;29;20060;-81
2023/08/05 01:15:44;;;;;;;3.60;0.73;;;17.30;91.00;;;;;;4854441;29;20064;-81
2023/08/05 01:18:13;;;;;;;1.52;0.65;;;17.20;91.00;;;;;;4843352;29;20072;-81
2023/08/05 01:20:45;;;;;;;1.25;0.50;;;17.20;91.10;;;;;;4871949;29;20709;-82
2023/08/05 01:23:43;;;;;;;2.00;0.68;;;17.20;91.10;;;;;;4859897;29;20152;-81
2023/08/05 01:26:10;;;;;;;2.08;0.50;;;17.20;91.10;;;;;;4860395;29;20052;-81
2023/08/05 01:28:40;;;;;;;1.90;0.60;;;17.10;91.20;;;;;;4861635;29;20147;-81
2023/08/05 01:31:09;;;;;;;1.27;0.65;;;17.10;91.20;;;;;;4878359;29;20068;-80
2023/08/05 01:33:36;;;;;;;3.15;0.90;;;17.10;91.30;;;;;;4876071;29;20041;-81
2023/08/05 01:36:03;;;;;;;1.30;0.60;;;17.00;91.40;;;;;;4864249;29;20052;-82
2023/08/05 01:38:41;;;;;;;2.15;0.57;;;17.00;91.40;;;;;;4864563;29;20150;-82
2023/08/05 01:41:09;;;;;;;1.70;0.68;;;16.90;91.50;;;;;;4855826;29;20143;-81
2023/08/05 01:43:36;;;;;;;2.58;0.70;;;16.90;91.60;;;;;;4861849;29;20052;-83
2023/08/05 01:46:06;;;;;;;1.25;0.60;;;16.80;91.70;;;;;;4859854;29;20143;-82
2023/08/05 01:48:33;;;;;;;1.33;0.60;;;16.80;91.70;;;;;;4859043;29;20103;-82
2023/08/05 01:51:00;;;;;;;2.40;0.70;;;16.80;91.80;;;;;;4877010;29;20048;-82
2023/08/05 01:53:27;;;;;;;1.25;0.60;;;16.80;91.80;;;;;;4845935;29;20053;-82
2023/08/05 01:55:54;;;;;;;0.90;0.60;;;16.80;91.80;;;;;;4849634;29;20044;-82
2023/08/05 01:58:21;;;;;;;0.98;0.50;;;16.80;91.80;;;;;;4854915;29;20048;-82
2023/08/05 02:00:52;;;;;;;1.77;0.80;;;16.80;91.80;;;;;;4872991;29;20055;-82
2023/08/05 02:03:20;;;;;;;2.17;0.73;;;16.80;91.70;;;;;;4896766;29;20131;-82
2023/08/05 02:05:47;;;;;;;2.50;0.68;;;16.80;91.80;;;;;;4849181;29;20044;-82
2023/08/05 02:08:14;;;;;;;2.08;0.80;;;16.80;91.80;;;;;;4854655;29;20108;-82
2023/08/05 02:10:42;;;;;;;1.92;0.80;;;16.80;91.80;;;;;;4845002;29;20069;-82
2023/08/05 02:13:09;;;;;;;1.30;0.70;;;16.80;91.80;;;;;;4845835;29;20171;-82
2023/08/05 02:15:36;;;;;;;1.50;0.70;;;16.90;91.80;;;;;;4860919;29;20077;-82
2023/08/05 02:18:04;;;;;;;1.60;0.70;;;16.80;91.80;;;;;;4858940;29;20091;-82
2023/08/05 02:20:31;;;;;;;1.10;0.60;;;16.80;91.80;;;;;;4876191;29;20394;-82
2023/08/05 02:22:58;;;;;;;2.33;0.70;;;16.80;91.90;;;;;;4874875;29;20147;-81
2023/08/05 02:25:25;;;;;;;1.10;0.50;;;16.80;91.90;;;;;;4877340;29;20589;-80
2023/08/05 02:27:52;;;;;;;1.48;0.70;;;16.80;91.90;;;;;;4851297;29;20589;-82
2023/08/05 02:30:19;;;;;;;2.30;0.85;;;16.80;91.90;;;;;;4846453;29;20036;-82
2023/08/05 02:32:46;;;;;;;2.33;0.80;;;16.80;91.90;;;;;;4857916;29;20508;-82
2023/08/05 02:35:13;;;;;;;2.70;0.70;;;16.80;92.00;;;;;;4877050;29;20053;-82
2023/08/05 02:37:40;;;;;;;3.15;0.93;;;16.80;92.00;;;;;;4858752;29;20497;-82
2023/08/05 02:40:11;;;;;;;1.77;0.75;;;16.80;92.00;;;;;;4860048;29;20059;-82
2023/08/05 02:42:38;;;;;;;4.05;1.13;;;16.80;92.00;;;;;;4848280;29;20489;-81
2023/08/05 02:45:05;;;;;;;2.08;0.57;;;16.70;92.00;;;;;;4876456;29;20104;-81
2023/08/05 02:47:32;;;;;;;1.98;0.90;;;16.70;92.10;;;;;;4844261;29;20049;-81
2023/08/05 02:50:00;;;;;;;1.73;0.68;;;16.70;92.10;;;;;;4875125;29;20072;-81
2023/08/05 02:52:27;;;;;;;2.08;0.68;;;16.70;92.20;;;;;;4844955;29;20055;-81
2023/08/05 02:54:54;;;;;;;1.45;0.70;;;16.60;92.20;;;;;;4878525;29;20081;-82
2023/08/05 02:57:21;;;;;;;1.08;0.50;;;16.60;92.20;;;;;;4848737;29;20048;-83
2023/08/05 02:59:48;;;;;;;1.55;0.73;;;16.60;92.20;;;;;;4849853;29;20056;-83
2023/08/05 03:02:15;;;;;;;1.92;0.77;;;16.60;92.30;;;;;;4894168;29;20056;-83
2023/08/05 03:04:42;;;;;;;1.30;0.65;;;16.60;92.30;;;;;;4843887;29;20036;-83
2023/08/05 03:07:09;;;;;;;1.42;0.60;;;16.60;92.40;;;;;;4877351;29;20805;-83
2023/08/05 03:09:36;;;;;;;1.67;0.55;;;16.60;92.40;;;;;;4880299;29;20147;-83
2023/08/05 03:12:07;;;;;;;1.80;0.73;;;16.60;92.40;;;;;;4870850;29;20075;-83
2023/08/05 03:14:36;;;;;;;2.10;0.57;;;16.60;92.50;;;;;;4879480;29;20564;-83
2023/08/05 03:17:06;;;;;;;1.85;0.70;;;16.50;92.60;;;;;;4866674;29;20461;-84
2023/08/05 03:19:33;;;;;;;2.42;0.75;;;16.50;92.70;;;;;;4891087;29;20052;-84
2023/08/05 03:22:01;;;;;;;1.13;0.50;;;16.40;92.70;;;;;;4860608;29;20052;-83
2023/08/05 03:24:28;;;;;;;1.33;0.60;;;16.40;92.80;;;;;;4877319;29;20100;-84
2023/08/05 03:26:56;;;;;;;2.50;0.80;;;16.30;92.80;;;;;;4846348;29;20049;-83
2023/08/05 03:29:23;;;;;;;2.22;0.98;;;16.30;92.90;;;;;;4848272;29;20051;-83
2023/08/05 03:31:51;;;;;;;1.65;0.70;;;16.20;93.00;;;;;;4858834;29;20167;-83
2023/08/05 03:34:23;;;;;;;2.75;0.90;;;16.20;93.00;;;;;;4849366;29;20139;-84
2023/08/05 03:36:52;;;;;;;2.20;0.65;;;16.20;93.10;;;;;;4863153;29;20095;-83
2023/08/05 03:39:21;;;;;;;1.10;0.50;;;16.10;93.20;;;;;;4896004;29;20104;-83
2023/08/05 03:41:48;;;;;;;2.08;0.60;;;16.00;93.20;;;;;;4876728;29;20052;-81
2023/08/05 03:44:18;;;;;;;1.63;0.90;;;16.00;93.30;;;;;;4849015;29;20052;-81
2023/08/05 03:46:45;;;;;;;2.10;0.95;;;15.90;93.40;;;;;;4876170;29;20049;-81
2023/08/05 03:49:13;;;;;;;3.22;0.80;;;15.90;93.50;;;;;;4860453;29;20037;-81
2023/08/05 03:51:40;;;;;;;1.77;0.70;;;15.80;93.50;;;;;;4854226;29;20539;-81
2023/08/05 03:54:08;;;;;;;1.77;0.73;;;15.80;93.60;;;;;;4852935;29;20048;-82
2023/08/05 03:56:35;;;;;;;1.27;0.60;;;15.80;93.60;;;;;;4861425;29;20048;-81
2023/08/05 03:59:03;;;;;;;1.10;0.70;;;15.70;93.70;;;;;;4848806;29;20143;-81
2023/08/05 04:01:34;;;;;;;2.90;0.75;;;15.70;93.70;;;;;;4851101;29;20061;-81
2023/08/05 04:04:01;;;;;;;1.80;0.60;;;15.70;93.70;;;;;;4865266;29;20481;-81
2023/08/05 04:06:29;;;;;;;2.30;1.05;;;15.70;93.70;;;;;;4874283;29;20576;-81
2023/08/05 04:08:59;;;;;;;2.67;1.02;;;15.80;93.70;;;;;;4827308;29;20055;-81
2023/08/05 04:11:26;;;;;;;1.70;0.70;;;15.70;93.70;;;;;;4865157;29;20493;-82
2023/08/05 04:13:58;;;;;;;1.25;0.65;;;15.80;93.70;;;;;;4866601;29;20056;-81
2023/08/05 04:16:27;;;;;;;2.25;0.85;;;15.80;93.70;;;;;;4858356;29;20140;-81
2023/08/05 04:18:54;;;;;;;1.88;0.70;;;15.80;93.70;;;;;;4890941;29;20048;-81
2023/08/05 04:21:25;;;;;;;3.85;0.60;;;15.90;93.70;;;;;;4877252;29;20044;-81
2023/08/05 04:23:54;;;;;;;2.30;0.70;;;15.90;93.60;;;;;;4874080;29;20438;-81
2023/08/05 04:26:21;;;;;;;2.67;0.90;;;16.00;93.50;;;;;;4862522;29;20453;-81
2023/08/05 04:28:48;;;;;;;1.73;0.75;;;16.10;93.50;;;;;;4857460;29;20044;-81
2023/08/05 04:31:15;;;;;;;2.55;0.88;;;16.10;93.40;;;;;;4847600;29;20067;-81
2023/08/05 04:33:43;;;;;;;1.80;0.77;;;16.20;93.40;;;;;;4854657;29;20144;-81
2023/08/05 04:36:10;;;;;;;1.90;1.00;;;16.20;93.40;;;;;;4862310;29;20048;-81
2023/08/05 04:38:37;;;;;;;2.00;0.63;;;16.30;93.40;;;;;;4896689;29;20152;-81
2023/08/05 04:41:07;;;;;;;4.28;0.90;;;16.30;93.30;;;;;;4861095;29;20541;-81
2023/08/05 04:43:36;;;;;;;2.45;0.75;;;16.40;93.30;;;;;;4864701;29;20060;-81
2023/08/05 04:46:06;;;;;;;2.83;0.80;;;16.40;93.30;;;;;;4865269;29;20067;-81
2023/08/05 04:48:33;;;;;;;1.45;0.80;;;16.40;93.30;;;;;;4846562;29;20055;-81
2023/08/05 04:51:00;;;;;;;2.55;0.82;;;16.40;93.20;;;;;;4865377;29;21466;-81
2023/08/05 04:53:27;;;;;;;2.05;0.90;;;16.50;93.30;;;;;;4863472;29;20037;-81
2023/08/05 04:55:56;;;;;;;2.35;1.00;;;16.50;93.30;;;;;;4871114;29;20049;-81
2023/08/05 04:58:23;;;;;;;2.08;1.15;;;16.50;93.60;;;;;;4871397;29;20458;-81
2023/08/05 05:00:54;;;;;;;2.85;1.27;;;16.50;93.40;;;;;;4858460;29;20072;-81
2023/08/05 05:03:22;;;;;;;3.63;1.10;;;16.40;93.30;;;;;;4888430;29;20041;-81
2023/08/05 05:05:49;;;;;;;2.50;1.10;;;16.40;93.40;;;;;;4871159;29;20044;-81
2023/08/05 05:08:16;;;;;;;2.67;1.08;;;16.50;93.40;;;;;;4858283;29;20441;-81
2023/08/05 05:11:02;;;;;;;3.03;1.40;;;16.50;93.40;;;;;;4869851;29;20156;-81
2023/08/05 05:13:30;;;;;;;3.78;1.25;;;16.50;93.40;;;;;;4877902;29;20512;-81
2023/08/05 05:15:57;;;;;;;2.95;1.15;;;16.50;93.40;;;;;;4873219;29;20037;-81
2023/08/05 05:18:24;;;;;;;4.72;1.60;;;16.50;93.30;;;;;;4860588;29;20048;-81
2023/08/05 05:20:51;;;;;;;1.83;0.90;;;16.60;93.40;;;;;;4861731;29;20080;-81
2023/08/05 05:23:18;;;;;;;2.22;1.00;;;16.60;93.40;;;;;;4861410;29;20063;-81
2023/08/05 05:25:46;;;;;;;3.58;1.27;;;16.60;93.40;;;;;;4873874;29;20045;-80
2023/08/05 05:28:14;;;;;;;3.10;1.30;;;16.60;93.30;;;;;;4874480;29;20139;-81
2023/08/05 05:30:41;;;;;;;2.95;1.20;;;16.70;93.30;;;;;;4875161;29;20497;-81
2023/08/05 05:33:08;;;;;;;3.38;0.93;;;16.70;93.30;;;;;;4842160;29;20049;-81
2023/08/05 05:35:35;;;;;;;2.83;1.38;;;16.80;93.20;;;;;;4873921;29;20036;-80
2023/08/05 05:38:02;;;;;;;2.53;1.15;;;16.80;93.20;;;;;;4863155;29;20557;-81
2023/08/05 05:40:29;;;;;;;2.78;1.25;;;16.90;93.20;;;;;;4856778;29;20063;-81
2023/08/05 05:42:56;;;;;;;3.60;1.70;;;16.90;93.10;;;;;;4741783;29;20373;-81
2023/08/05 05:45:23;;;;;;;3.15;1.50;;;17.00;93.10;;;;;;4860159;29;20412;-82
2023/08/05 05:47:50;;;;;;;3.28;1.50;;;17.00;93.10;;;;;;4846114;29;20063;-81
2023/08/05 05:50:19;;;;;;;3.65;1.40;;;17.10;93.10;;;;;;4873372;29;20497;-81
2023/08/05 05:52:48;;;;;;;2.30;1.10;;;17.10;93.10;;;;;;4878838;29;20093;-81
2023/08/05 05:55:15;;;;;;;3.42;1.63;;;17.10;93.10;;;;;;4849479;29;20060;-81
2023/08/05 05:57:43;;;;;;;2.88;1.65;;;17.10;93.10;;;;;;4876345;29;20642;-82
2023/08/05 06:00:11;;;;;;;3.13;1.58;;;17.10;93.10;;;;;;4880650;29;20060;-82
2023/08/05 06:02:38;;;;;;;3.80;1.92;;;17.10;93.10;;;;;;4846246;29;20088;-81
2023/08/05 06:05:06;;;;;;;3.55;1.98;;;17.10;93.00;;;;;;4892812;29;20048;-81
2023/08/05 06:07:33;;;;;;;3.97;2.05;;;17.10;93.00;;;;;;4862001;29;20055;-82
2023/08/05 06:10:00;;;;;;;4.82;1.80;;;17.20;93.10;;;;;;4861179;29;20041;-82
2023/08/05 06:12:32;;;;;;;2.72;1.45;;;17.20;93.00;;;;;;4849399;29;20045;-82
2023/08/05 06:15:00;;;;;;;3.17;1.73;;;17.20;93.00;;;;;;4856670;29;20053;-81
2023/08/05 06:17:27;;;;;;;4.10;1.92;;;17.30;93.00;;;;;;4870980;29;20052;-82
2023/08/05 06:19:54;;;;;;;4.00;2.00;;;17.30;93.00;;;;;;4843922;29;20053;-82
2023/08/05 06:22:21;;;;;;;3.00;1.40;;;17.30;92.90;;;;;;4891490;29;20048;-82
2023/08/05 06:24:50;;;;;;;3.75;2.05;;;17.40;92.90;;;;;;4843260;29;20519;-81
2023/08/05 06:27:20;;;;;;;2.78;1.42;;;17.40;92.90;;;;;;4874786;29;20048;-81
2023/08/05 06:29:47;;;;;;;3.70;1.88;;;17.50;92.80;;;;;;4862092;29;20057;-82
2023/08/05 06:32:14;;;;;;;3.28;1.90;;;17.50;92.80;;;;;;4864115;29;20111;-81
2023/08/05 06:34:41;;;;;;;4.72;2.17;;;17.60;92.80;;;;;;4858688;29;20068;-81
2023/08/05 06:37:08;;;;;;;4.18;2.20;;;17.70;92.70;;;;;;4845423;29;20052;-81
2023/08/05 06:39:36;;;;;;;3.67;1.92;;;17.70;92.60;;;;;;4861165;29;20076;-82
2023/08/05 06:42:04;;;;;;;4.05;1.83;;;17.90;92.60;;;;;;4879113;29;20535;-81
2023/08/05 06:44:37;;;;;;;2.42;1.30;;;18.00;92.50;;;;;;4861649;29;20075;-81
2023/08/05 06:47:06;;;;;;;3.50;1.90;;;18.10;92.40;;;;;;4898094;29;20076;-81
2023/08/05 06:49:35;;;;;;;3.33;1.92;;;18.20;92.30;;;;;;4844716;29;20052;-81
2023/08/05 06:52:02;;;;;;;4.05;2.33;;;18.30;92.20;;;;;;4861066;29;20044;-81
2023/08/05 06:54:29;;;;;;;4.32;2.00;;;18.30;92.10;;;;;;4879595;29;20111;-81
2023/08/05 06:56:56;;;;;;;3.13;1.70;;;18.30;92.10;;;;;;4878913;29;20420;-81
2023/08/05 06:59:23;;;;;;;3.67;2.30;;;18.40;92.10;;;;;;4841511;29;20052;-82
2023/08/05 07:01:54;;;;;;;3.78;2.33;;;18.50;92.00;;;;;;4881026;29;20064;-81
2023/08/05 07:04:21;;;;;;;4.38;2.92;;;18.70;91.90;;;;;;4877064;29;20108;-81
2023/08/05 07:06:48;;;;;;;5.90;2.83;;;18.80;91.80;;;;;;4900367;29;20063;-81
2023/08/05 07:09:15;;;;;;;5.15;3.20;;;18.80;91.70;;;;;;4862375;29;20072;-81
2023/08/05 07:11:42;;;;;;;4.60;2.67;;;18.90;91.70;;;;;;4876274;29;20493;-81
2023/08/05 07:14:09;;;;;;;5.55;2.65;;;18.90;91.60;;;;;;4859792;29;20052;-81
2023/08/05 07:16:36;;;;;;;4.78;2.67;;;18.90;91.60;;;;;;4881497;29;20051;-81
2023/08/05 07:19:06;;;;;;;5.57;3.00;;;18.90;91.60;;;;;;4866662;29;20048;-81
2023/08/05 07:21:37;;;;;;;7.85;3.45;;;18.90;91.70;;;;;;4896523;29;20044;-81
2023/08/05 07:24:04;;;;;;;6.15;3.55;;;19.00;91.70;;;;;;4878967;29;20088;-81
2023/08/05 07:26:31;;;;;;;4.88;3.17;;;19.10;91.60;;;;;;4845163;29;20052;-80
2023/08/05 07:28:58;;;;;;;4.50;2.72;;;19.20;91.50;;;;;;4895091;29;20047;-81
2023/08/05 07:31:25;;;;;;;6.00;3.60;;;19.30;91.30;;;;;;4879326;29;20040;-81
2023/08/05 07:33:52;;;;;;;7.18;4.07;;;19.50;91.30;;;;;;4879333;29;20076;-81
2023/08/05 07:36:22;;;;;;;5.90;3.53;;;19.60;91.10;;;;;;4855840;29;20052;-82
2023/08/05 07:38:51;;;;;;;4.97;2.97;;;19.80;90.90;;;;;;4877262;29;20048;-81
2023/08/05 07:41:20;;;;;;;4.40;2.55;;;19.90;90.80;;;;;;4874427;29;20051;-81
2023/08/05 07:43:48;;;;;;;6.47;2.90;;;20.00;90.70;;;;;;4877573;29;20041;-81
2023/08/05 07:46:16;;;;;;;4.90;3.10;;;20.10;90.60;;;;;;4892372;29;20044;-81
2023/08/05 07:48:47;;;;;;;4.70;2.80;;;20.40;90.40;;;;;;4889734;29;20128;-82
2023/08/05 07:51:14;;;;;;;4.13;2.58;;;20.50;90.10;;;;;;4896080;29;20052;-82
2023/08/05 07:53:41;;;;;;;4.60;2.20;;;20.50;90.00;;;;;;4846860;29;20454;-82
2023/08/05 07:56:12;;;;;;;3.58;2.20;;;20.50;90.10;;;;;;4861366;29;20048;-82
2023/08/05 07:58:42;;;;;;;4.03;2.47;;;20.30;90.20;;;;;;4873030;29;20497;-82
2023/08/05 08:01:17;;;;;;;3.38;2.20;;;20.20;90.30;;;;;;4893092;29;20653;-81
2023/08/05 08:04:22;;;;;;;4.65;2.33;;;20.10;90.40;;;;;;4880659;29;20087;-82
2023/08/05 08:06:49;;;;;;;2.70;1.77;;;19.90;90.40;;;;;;4872870;29;20142;-82
2023/08/05 08:09:17;;;;;;;3.60;1.80;;;19.70;90.60;;;;;;4881533;29;20048;-81
2023/08/05 08:11:44;;;;;;;3.28;1.92;;;19.50;90.80;;;;;;4871679;29;20045;-81
2023/08/05 08:14:11;;;;;;;3.78;1.73;;;19.40;90.90;;;;;;4897847;29;20048;-81
2023/08/05 08:16:39;;;;;;;3.83;2.08;;;19.30;90.90;;;;;;4878920;29;20376;-82
2023/08/05 08:19:07;;;;;;;3.72;2.17;;;19.30;90.90;;;;;;4860884;29;20037;-81
2023/08/05 08:21:34;;;;;;;3.50;2.10;;;19.30;90.90;;;;;;4845943;29;20488;-81
2023/08/05 08:24:01;;;;;;;3.10;2.17;;;19.30;90.70;;;;;;4878709;29;20501;-82
2023/08/05 08:26:28;;;;;;;4.25;2.10;;;19.30;90.40;;;;;;4847633;29;20508;-82
2023/08/05 08:28:55;;;;;;;1.60;0.90;;;19.30;90.40;;;;;;4883923;29;20579;-82
2023/08/05 08:31:22;;;;;;;2.20;1.33;;;19.20;90.50;;;;;;4891823;29;20068;-83
2023/08/05 08:33:50;;;;;;;2.15;1.20;;;19.10;90.50;;;;;;4846934;29;20044;-83
2023/08/05 08:36:18;;;;;;;2.78;1.17;;;19.10;90.50;;;;;;4864761;29;20052;-83
2023/08/05 08:38:46;;;;;;;2.80;1.10;;;19.20;90.40;;;;;;4880697;29;20143;-83
2023/08/05 08:41:13;;;;;;;1.98;0.95;;;19.30;90.10;;;;;;4842211;29;20052;-83
2023/08/05 08:43:42;;;;;;;2.13;0.95;;;19.50;90.20;;;;;;4863944;29;20549;-83
2023/08/05 08:46:11;;;;;;;3.15;1.00;;;19.60;89.40;;;;;;4876624;29;20053;-84
2023/08/05 08:48:40;;;;;;;2.50;1.20;;;19.80;89.10;;;;;;4893135;29;20135;-83
2023/08/05 08:51:08;;;;;;;3.47;1.38;;;19.80;88.70;;;;;;4893190;29;20045;-81
2023/08/05 08:53:37;;;;;;;1.77;1.00;;;19.80;88.40;;;;;;4885569;29;20064;-82
2023/08/05 08:56:05;;;;;;;2.22;1.38;;;19.80;88.70;;;;;;4856411;29;20052;-82
2023/08/05 08:58:32;;;;;;;2.00;1.10;;;19.70;88.50;;;;;;4847630;29;20066;-81
2023/08/05 09:01:00;;;;;;;3.08;1.67;;;19.70;88.70;;;;;;4856644;29;21086;-81
2023/08/05 09:03:29;;;;;;;3.40;1.42;;;19.70;88.20;;;;;;4894285;29;20079;-81
2023/08/05 09:05:58;;;;;;;3.55;1.40;;;19.70;88.30;;;;;;4872882;29;20044;-82
2023/08/05 09:08:25;;;;;;;2.30;1.30;;;19.60;88.30;;;;;;4854431;29;20108;-82
2023/08/05 09:10:52;;;;;;;2.72;1.02;;;19.60;88.30;;;;;;4890619;29;20052;-82
2023/08/05 09:13:20;;;;;;;2.47;1.52;;;19.60;88.40;;;;;;4860219;29;20115;-82
2023/08/05 09:15:48;;;;;;;2.35;1.30;;;19.70;88.00;;;;;;4885873;29;20104;-82
2023/08/05 09:18:15;;;;;;;4.38;2.08;;;19.80;88.00;;;;;;4729413;29;20421;-81
2023/08/05 09:20:42;;;;;;;2.03;1.23;;;20.00;87.40;;;;;;4845058;29;20049;-82
2023/08/05 09:23:10;;;;;;;3.67;2.00;;;20.10;87.10;;;;;;4886742;29;20064;-82
2023/08/05 09:25:41;;;;;;;2.63;1.52;;;20.20;86.60;;;;;;4874997;29;20552;-79
2023/08/05 09:28:09;;;;;;;4.35;1.52;;;20.40;86.50;;;;;;4850396;29;20052;-79
2023/08/05 09:30:36;;;;;;;3.13;1.25;;;20.60;86.00;;;;;;4861992;29;20420;-80
2023/08/05 09:33:04;;;;;;;2.42;1.25;;;20.80;85.50;;;;;;4863545;29;20140;-80
2023/08/05 09:35:31;;;;;;;3.72;1.60;;;21.10;84.90;;;;;;4859244;29;20401;-80
2023/08/05 09:38:00;;;;;;;2.55;1.20;;;21.30;84.30;;;;;;4887016;29;20056;-80
2023/08/05 09:40:29;;;;;;;2.67;1.27;;;21.50;84.00;;;;;;4878357;29;20048;-80
2023/08/05 09:43:03;;;;;;;;;;;21.70;83.50;;;;;;4873940;29;20100;-81
2023/08/05 09:45:32;;;;;;;2.28;1.10;;;21.70;83.60;;;;;;4896370;29;20010;-81
2023/08/05 09:48:08;;;;;;;3.63;2.15;;;21.70;83.30;;;;;;4882471;29;20049;-80
2023/08/05 09:50:38;;;;;;;2.30;1.58;;;21.50;82.70;;;;;;4858130;29;20051;-80
2023/08/05 09:53:06;;;;;;;3.00;1.20;;;21.50;83.00;;;;;;4875763;29;20052;-80
2023/08/05 09:55:36;;;;;;;2.15;1.35;;;21.50;83.20;;;;;;4890586;29;20052;-80
2023/08/05 09:58:07;;;;;;;2.67;1.13;;;21.40;83.40;;;;;;4872915;29;20076;-80
2023/08/05 10:00:51;;;;;;;1.92;1.00;;;21.50;83.50;;;;;;4859623;29;20054;-79
2023/08/05 10:03:19;;;;;;;1.77;1.08;;;21.60;83.20;;;;;;4821346;29;20059;-83
2023/08/05 10:05:47;;;;;;;2.22;1.33;;;21.80;82.40;;;;;;4840409;29;20053;-81
2023/08/05 10:08:15;;;;;;;2.25;1.10;;;22.00;81.80;;;;;;4841272;29;20404;-79
2023/08/05 10:10:43;;;;;;;1.95;0.90;;;22.30;81.60;;;;;;4855626;29;20050;-81
2023/08/05 10:13:16;;;;;;;2.15;0.90;;;22.40;81.10;;;;;;4836737;29;20106;-81
2023/08/05 10:15:48;;;;;;;2.47;1.02;;;22.50;81.20;;;;;;4844414;29;20111;-84
2023/08/05 10:18:16;;;;;;;1.77;1.08;;;22.50;80.40;;;;;;4868804;29;20052;-83
2023/08/05 10:20:50;;;;;;;1.90;0.85;;;22.60;80.40;;;;;;4845570;29;20457;-85
2023/08/05 10:23:18;;;;;;;1.27;0.80;;;22.60;80.40;;;;;;4853407;29;20076;-83
2023/08/05 10:25:48;;;;;;;1.80;0.70;;;22.40;80.70;;;;;;4857024;29;20116;-84
2023/08/05 10:28:25;;;;;;;1.35;0.85;;;22.40;80.90;;;;;;4857070;29;20057;-83
2023/08/05 10:30:54;;;;;;;1.25;0.85;;;22.40;80.80;;;;;;4856806;29;20049;-82
2023/08/05 10:33:22;;;;;;;1.77;0.98;;;22.40;80.80;;;;;;4859185;29;20053;-83
2023/08/05 10:35:49;;;;;;;1.45;0.80;;;22.40;80.80;;;;;;4845020;29;20055;-84
2023/08/05 10:38:22;;;;;;;2.13;0.80;;;22.40;80.40;;;;;;4861392;29;20063;-84
2023/08/05 10:41:03;;;;;;;1.85;0.70;;;22.50;80.10;;;;;;4878151;29;20163;-85
2023/08/05 10:43:41;;;;;;;2.22;1.08;;;22.40;80.00;;;;;;4900624;29;20052;-84
2023/08/05 10:46:12;;;;;;;0.90;0.60;;;22.30;80.10;;;;;;4891761;29;20891;-85
2023/08/05 10:48:48;;;;;;;1.20;0.77;;;22.20;80.30;;;;;;4893344;29;20047;-85
2023/08/05 10:51:20;;;;;;;2.25;0.80;;;22.00;80.30;;;;;;4878384;29;20040;-82
2023/08/05 10:53:58;;;;;;;1.40;0.70;;;21.90;80.30;;;;;;4870005;29;20144;-86
2023/08/05 10:56:31;;;;;;;2.50;1.10;;;22.00;80.20;;;;;;4884007;29;20144;-85
2023/08/05 10:59:14;;;;;;;1.23;0.70;;;22.10;79.90;;;;;;4898615;29;20064;-85
2023/08/05 11:01:56;;;;;;;2.20;1.05;;;22.30;79.70;;;;;;4905461;29;20119;-89
2023/08/05 11:04:47;;;;;;;3.05;1.05;;;22.40;79.10;;;;;;4864040;29;20481;-86
2023/08/05 11:07:19;;;;;;;1.50;0.70;;;22.20;79.30;;;;;;4864656;29;20052;-86
2023/08/05 11:09:55;;;;;;;2.38;0.90;;;22.00;80.00;;;;;;4896095;29;20036;-86
2023/08/05 11:12:39;;;;;;;2.28;1.17;;;21.80;80.20;;;;;;4868230;29;20055;-84
2023/08/05 11:15:09;;;;;;;2.03;1.25;;;21.70;80.30;;;;;;4896254;29;20064;-85
2023/08/05 11:17:55;;;;;;;2.00;0.90;;;21.90;80.10;;;;;;4893349;29;20904;-83
2023/08/05 11:20:34;;;;;;;1.50;0.80;;;22.40;79.20;;;;;;4857581;29;20044;-84
2023/08/05 11:23:01;;;;;;;1.75;0.80;;;22.90;78.30;;;;;;4869625;29;20081;-88
2023/08/05 11:25:29;;;;;;;1.30;0.80;;;23.30;77.40;;;;;;4862251;29;20056;-89
2023/08/05 11:27:57;;;;;;;2.75;0.90;;;23.40;76.70;;;;;;4883918;29;20127;-87
2023/08/05 11:30:24;;;;;;;2.03;0.90;;;23.70;76.10;;;;;;4865795;29;20051;-88
2023/08/05 11:32:56;;;;;;;1.85;0.90;;;23.90;75.50;;;;;;4878110;29;20053;-84
2023/08/05 11:35:26;;;;;;;;;;;24.10;74.30;;;;;;4879703;29;20033;-83
2023/08/05 11:37:54;;;;;;;1.70;1.00;;;24.20;74.10;;;;;;4890975;29;19929;-84
2023/08/05 11:40:22;;;;;;;2.10;0.93;;;24.40;73.50;;;;;;4880472;29;20047;-79
2023/08/05 11:42:50;;;;;;;1.27;0.82;;;24.60;73.20;;;;;;4862956;29;20040;-79
2023/08/05 11:45:17;;;;;;;1.65;0.70;;;24.60;73.20;;;;;;4874892;29;20056;-79
2023/08/05 11:47:45;;;;;;;1.70;0.90;;;24.50;73.20;;;;;;4844849;29;20049;-80
2023/08/05 11:50:12;;;;;;;1.40;0.80;;;24.10;73.70;;;;;;4691664;29;20494;-82
2023/08/05 11:52:40;;;;;;;1.70;0.77;;;23.80;74.40;;;;;;4860126;29;20056;-81
2023/08/05 11:55:09;;;;;;;1.38;0.70;;;23.30;75.30;;;;;;4872092;29;20041;-85
2023/08/05 11:57:36;;;;;;;1.20;0.65;;;23.10;76.00;;;;;;4889339;29;20049;-82
2023/08/05 12:00:05;;;;;;;1.40;0.75;;;22.80;76.60;;;;;;4856780;29;20052;-83
2023/08/05 12:02:36;;;;;;;1.83;0.88;;;22.50;77.10;;;;;;4683472;29;20441;-85
2023/08/05 12:05:04;;;;;;;1.77;0.77;;;22.30;77.70;;;;;;4879836;29;20049;-87
2023/08/05 12:07:51;;;;;;;1.45;1.00;;;21.90;78.30;;;;;;4838332;29;20064;-84
2023/08/05 12:10:20;;;;;;;2.40;1.13;;;21.50;79.40;;;;;;4870286;29;20049;-83
2023/08/05 12:12:48;;;;;;;2.63;1.50;;;20.80;81.30;;;;;;4861984;29;20049;-80
2023/08/05 12:15:25;;;;;;;1.50;0.95;;;20.00;84.30;;;;;;4863258;29;20088;-80
2023/08/05 12:17:58;;;;;;;3.33;1.15;;;19.30;85.60;;;;;;4843055;29;20049;-80
2023/08/05 12:20:36;;;;;;;2.72;0.98;;;19.00;87.00;;;;;;4871720;29;20049;-81
2023/08/05 12:23:05;;;;;;;2.38;0.95;;;18.60;88.00;;;;;;4872672;29;20053;-81
2023/08/05 12:25:33;;;;;;;1.67;0.80;;;18.40;88.80;;;;;;4865738;29;20048;-84
2023/08/05 12:28:00;;;;;;;2.38;1.20;;;18.30;89.60;;;;;;4879895;29;20040;-80
2023/08/05 12:30:31;;;;;;;2.85;0.93;;;18.20;89.90;;;;;;4856971;29;20051;-82
2023/08/05 12:32:58;;;;;;;1.40;0.77;;;18.30;90.00;;;;;;4885820;29;20045;-85
2023/08/05 12:35:26;;;;;;;1.50;0.60;;;18.30;90.10;;;;;;4858526;29;20048;-86
2023/08/05 12:37:53;;;;;;;2.25;1.05;;;18.30;90.20;;;;;;4877342;29;20044;-84
2023/08/05 12:40:20;;;;;;;1.63;0.98;;;18.30;90.30;;;;;;4849269;29;20072;-85
2023/08/05 12:42:53;;;;;;;2.88;0.80;;;18.30;90.40;;;;;;4896736;29;20044;-90
2023/08/05 12:45:40;;;;;;;2.60;1.05;;;18.30;90.50;;;;;;4819535;29;20056;-78
2023/08/05 12:48:10;;;;;;;2.30;1.10;;;18.20;90.70;;;;;;4566911;29;20096;-78
2023/08/05 12:50:37;;;;;;;2.13;1.10;;;18.10;90.90;;;;;;4880828;29;20045;-78
2023/08/05 12:53:04;;;;;;;2.03;1.05;;;18.20;91.00;;;;;;4895778;29;20109;-78
2023/08/05 12:55:31;;;;;;;1.92;1.02;;;18.10;91.00;;;;;;4871833;29;20056;-78
2023/08/05 12:57:58;;;;;;;1.73;0.98;;;18.20;91.10;;;;;;4852961;29;20044;-78